Meiou Maru — JD4206 — position and weather

sailwx.info

Track history (hours):
 
Tides and Currents Weather Stations Pressure Air Temp Water Temp Dewpoint Dewpoint Depression Visibility Wind Speed Wind Dir Waves Ship Positions

Meiou Maru

Last reported at 2018-Feb-22 04:57 UTC. Time now 2018-Feb-22 05:22 UTC.
Position N 35°30' E 140°02'.

Length 65 m; draft 4.3 m.

Type: Tanker. MMSI: 431009805.

Date/timePositionNaut miles runAvg speedWind from/ knotsBaromVisibWave heightAir tempDewpointWater temp
2018-Feb-22 04:57N 35°30' E 140°02'0 0.0
2018-Feb-22 04:27N 35°30' E 140°02'0 0.0
2018-Feb-22 03:57N 35°30' E 140°02'0 0.0
2018-Feb-22 03:19N 35°30' E 140°02'0 0.2
2018-Feb-22 02:59N 35°31' E 140°03'1 2.3
2018-Feb-22 02:30N 35°31' E 140°01'0 0.0
2018-Feb-22 02:00N 35°31' E 140°01'0 0.1
2018-Feb-22 01:30N 35°31' E 140°01'0 0.0
2018-Feb-22 01:00N 35°31' E 140°01'0 0.0
2018-Feb-22 00:30N 35°31' E 140°01'0 0.1
2018-Feb-22 00:00N 35°31' E 140°01'0 0.0
2018-Feb-21 23:30N 35°31' E 140°01'0 0.0
2018-Feb-21 23:00N 35°31' E 140°01'0 0.0
2018-Feb-21 22:30N 35°31' E 140°01'0 0.0
2018-Feb-21 22:00N 35°31' E 140°01'0 0.0
2018-Feb-21 21:30N 35°31' E 140°01'0 0.0
2018-Feb-21 21:00N 35°31' E 140°01'0 0.1
2018-Feb-21 20:30N 35°31' E 140°01'0 0.0
2018-Feb-21 20:00N 35°31' E 140°01'0 0.0
2018-Feb-21 19:30N 35°31' E 140°01'0 0.0
2018-Feb-21 19:00N 35°31' E 140°01'0 0.0
2018-Feb-21 18:30N 35°31' E 140°01'0 0.0
2018-Feb-21 18:00N 35°31' E 140°01'0 0.0
2018-Feb-21 17:30N 35°31' E 140°01'0 0.0
2018-Feb-21 17:00N 35°31' E 140°01'0 0.0
2018-Feb-21 16:30N 35°31' E 140°01'0 0.0
2018-Feb-21 16:00N 35°31' E 140°01'0 0.0
2018-Feb-21 15:30N 35°31' E 140°01'0 0.0
2018-Feb-21 15:00N 35°31' E 140°01'0 0.0
2018-Feb-21 14:30N 35°31' E 140°01'0 0.0
2018-Feb-21 14:00N 35°31' E 140°01'0 0.0
2018-Feb-21 13:28N 35°31' E 140°01'0 0.0
2018-Feb-21 13:00N 35°31' E 140°01'0 0.0
2018-Feb-21 12:29N 35°31' E 140°01'0 0.0
2018-Feb-21 11:58N 35°31' E 140°01'0 0.1
2018-Feb-21 11:30N 35°31' E 140°01'5 9.6
2018-Feb-21 11:00N 35°30' E 139°55'611.6
2018-Feb-21 10:30N 35°27' E 139°49'611.5
2018-Feb-21 10:00N 35°22' E 139°45'511.0
2018-Feb-21 09:30N 35°17' E 139°46'611.9
2018-Feb-21 08:59N 35°10' E 139°46'612.4
2018-Feb-21 08:29N 35°05' E 139°43'611.9
2018-Feb-21 07:59N 35°01' E 139°37'1312.0
2018-Feb-21 06:53N 34°53' E 139°24'512.0
2018-Feb-21 06:30N 34°50' E 139°20'612.1
2018-Feb-21 06:00N 34°46' E 139°15'712.1
2018-Feb-21 05:26N 34°41' E 139°09'511.4
2018-Feb-21 05:00N 34°39' E 139°04'611.6
2018-Feb-21 04:30N 34°36' E 138°57'611.6
2018-Feb-21 04:00N 34°35' E 138°51'510.4
2018-Feb-21 03:30N 34°34' E 138°44'2211.6
2018-Feb-21 01:36N 34°32' E 138°18'16510.0
2018-Feb-20 09:03N 33°50' E 135°05'111.6
2018-Feb-20 08:59N 33°51' E 135°04'611.9
2018-Feb-20 08:27N 33°56' E 135°01'512.5
2018-Feb-20 08:00N 34°02' E 135°01'612.6
2018-Feb-20 07:30N 34°08' E 135°02'612.2
2018-Feb-20 07:01N 34°14' E 135°03'713.1
2018-Feb-20 06:30N 34°20' E 135°05'612.3
2018-Feb-20 06:00N 34°26' E 135°10'611.6
2018-Feb-20 05:30N 34°30' E 135°13'611.1
2018-Feb-20 05:00N 34°36' E 135°16'510.8
2018-Feb-20 04:30N 34°41' E 135°15'1 2.6
2018-Feb-20 04:00N 34°42' E 135°15'0 0.0
2018-Feb-20 03:31N 34°42' E 135°15'0 0.0
2018-Feb-20 03:01N 34°42' E 135°15'0 0.0
2018-Feb-20 02:30N 34°42' E 135°15'0 0.1
2018-Feb-20 02:01N 34°42' E 135°15'0 0.0
2018-Feb-20 01:30N 34°42' E 135°15'0 0.0
2018-Feb-20 01:00N 34°42' E 135°15'0 0.0
2018-Feb-20 00:30N 34°42' E 135°15'0 0.0
2018-Feb-19 23:59N 34°42' E 135°15'0 0.0
2018-Feb-19 23:31N 34°42' E 135°15'0 0.0
2018-Feb-19 23:00N 34°42' E 135°15'2 4.1
2018-Feb-19 22:30N 34°40' E 135°15'3 6.0
2018-Feb-19 22:00N 34°37' E 135°16'0 0.0
2018-Feb-19 21:30N 34°37' E 135°16'1 1.9
2018-Feb-19 21:00N 34°37' E 135°15'611.1
2018-Feb-19 20:30N 34°35' E 135°08'613.0
2018-Feb-19 20:00N 34°37' E 135°01'714.2
2018-Feb-19 19:30N 34°35' E 134°53'612.7
2018-Feb-19 19:00N 34°32' E 134°46'611.8
2018-Feb-19 18:30N 34°30' E 134°39'611.5
2018-Feb-19 18:01N 34°27' E 134°33'611.4
2018-Feb-19 17:30N 34°25' E 134°26'611.4
2018-Feb-19 17:00N 34°24' E 134°19'83 9.8
2018-Feb-19 08:32N 34°06' E 132°42'010.0
2018-Feb-19 08:30N 34°06' E 132°41'510.3
2018-Feb-19 08:00N 34°04' E 132°36'810.0
2018-Feb-19 07:15N 34°05' E 132°27'311.3
2018-Feb-19 06:57N 34°07' E 132°23'511.4
2018-Feb-19 06:30N 34°10' E 132°19'511.1
2018-Feb-19 06:00N 34°14' E 132°14'0 0.6
2018-Feb-19 05:30N 34°14' E 132°14'0 0.0
2018-Feb-19 05:00N 34°14' E 132°14'0 0.0
2018-Feb-19 04:30N 34°14' E 132°14'0 0.0
2018-Feb-19 04:00N 34°14' E 132°14'0 0.0
2018-Feb-19 03:30N 34°14' E 132°14'0 0.0
2018-Feb-19 02:59N 34°14' E 132°14'1 1.4
2018-Feb-19 02:30N 34°14' E 132°14'2 4.0
2018-Feb-19 02:00N 34°12' E 132°14'0 0.0
2018-Feb-19 01:30N 34°12' E 132°14'0 0.0
2018-Feb-19 00:59N 34°12' E 132°14'0 0.0
2018-Feb-19 00:28N 34°12' E 132°14'0 0.0
2018-Feb-19 00:00N 34°12' E 132°14'0 0.0
2018-Feb-18 23:30N 34°12' E 132°14'0 0.0
2018-Feb-18 23:00N 34°12' E 132°14'0 0.0
2018-Feb-18 22:29N 34°12' E 132°14'0 0.8
2018-Feb-18 21:59N 34°11' E 132°14'0 0.0
2018-Feb-18 21:30N 34°11' E 132°14'0 0.0
2018-Feb-18 21:00N 34°11' E 132°14'0 0.0
2018-Feb-18 20:30N 34°11' E 132°14'0 0.0
2018-Feb-18 19:57N 34°11' E 132°14'0 0.0
2018-Feb-18 19:30N 34°11' E 132°14'0 0.0
2018-Feb-18 18:59N 34°11' E 132°14'0 0.0
2018-Feb-18 18:30N 34°11' E 132°14'0 0.0
2018-Feb-18 18:00N 34°11' E 132°14'0 0.0
2018-Feb-18 17:30N 34°11' E 132°14'0 0.0
2018-Feb-18 17:00N 34°11' E 132°14'0 0.0
2018-Feb-18 16:30N 34°11' E 132°14'0 0.0
2018-Feb-18 16:00N 34°11' E 132°14'0 0.0
2018-Feb-18 15:30N 34°11' E 132°14'0 0.0
2018-Feb-18 14:58N 34°11' E 132°14'0 0.0
2018-Feb-18 14:30N 34°11' E 132°14'0 0.0
2018-Feb-18 13:58N 34°11' E 132°14'0 0.0
2018-Feb-18 13:30N 34°11' E 132°14'0 0.0
2018-Feb-18 13:00N 34°11' E 132°14'0 0.0
2018-Feb-18 12:30N 34°11' E 132°14'0 0.0
2018-Feb-18 12:00N 34°11' E 132°14'0 0.0
2018-Feb-18 11:30N 34°11' E 132°14'0 0.0
2018-Feb-18 10:59N 34°11' E 132°14'0 0.0
2018-Feb-18 10:30N 34°11' E 132°14'0 0.0
2018-Feb-18 10:00N 34°11' E 132°14'0 0.0
2018-Feb-18 09:30N 34°11' E 132°14'0 0.0
2018-Feb-18 08:59N 34°11' E 132°14'0 0.0
2018-Feb-18 08:29N 34°11' E 132°14'0 0.0
2018-Feb-18 07:59N 34°11' E 132°14'0 0.0
2018-Feb-18 07:25N 34°11' E 132°14'0 0.0
2018-Feb-18 07:00N 34°11' E 132°14'0 0.0
2018-Feb-18 06:23N 34°11' E 132°14'0 0.0
2018-Feb-18 06:00N 34°11' E 132°14'0 0.0
2018-Feb-18 05:30N 34°11' E 132°14'0 0.0
2018-Feb-18 05:00N 34°11' E 132°14'1 2.5
2018-Feb-18 04:30N 34°12' E 132°16'3 5.7
2018-Feb-18 04:00N 34°14' E 132°13'0 0.1
2018-Feb-18 03:30N 34°14' E 132°13'0 0.0
2018-Feb-18 03:00N 34°14' E 132°13'0 0.0
2018-Feb-18 02:30N 34°14' E 132°13'0 0.2
2018-Feb-18 02:00N 34°14' E 132°14'0 0.0
2018-Feb-18 01:30N 34°14' E 132°14'0 0.0
2018-Feb-18 01:00N 34°14' E 132°14'0 0.0
2018-Feb-18 00:30N 34°14' E 132°14'0 0.0
2018-Feb-18 00:00N 34°14' E 132°14'0 0.0
2018-Feb-17 23:30N 34°14' E 132°14'0 0.0
2018-Feb-17 23:00N 34°14' E 132°14'1 2.0
2018-Feb-17 22:30N 34°13' E 132°15'0 0.0
2018-Feb-17 22:00N 34°13' E 132°15'0 0.0
2018-Feb-17 21:30N 34°13' E 132°15'0 0.0
2018-Feb-17 20:59N 34°13' E 132°15'0 0.0
2018-Feb-17 20:30N 34°13' E 132°15'0 0.0
2018-Feb-17 20:00N 34°13' E 132°15'0 0.0
2018-Feb-17 19:30N 34°13' E 132°15'0 0.0
2018-Feb-17 19:00N 34°13' E 132°15'0 0.0
2018-Feb-17 18:30N 34°13' E 132°15'0 0.0
2018-Feb-17 17:59N 34°13' E 132°15'0 0.0
2018-Feb-17 17:30N 34°13' E 132°15'0 0.0
2018-Feb-17 17:00N 34°13' E 132°15'0 0.0
2018-Feb-17 16:30N 34°13' E 132°15'0 0.0
2018-Feb-17 16:00N 34°13' E 132°15'0 0.0
2018-Feb-17 15:30N 34°13' E 132°15'0 0.0
2018-Feb-17 15:00N 34°13' E 132°15'0 0.0
2018-Feb-17 14:30N 34°13' E 132°15'0 0.0
2018-Feb-17 14:00N 34°13' E 132°15'0 0.0
2018-Feb-17 13:30N 34°13' E 132°15'0 0.0
2018-Feb-17 13:00N 34°13' E 132°15'0 0.0
2018-Feb-17 12:30N 34°13' E 132°15'0 0.0
2018-Feb-17 12:00N 34°13' E 132°15'0 0.0
2018-Feb-17 11:30N 34°13' E 132°15'0 0.0
2018-Feb-17 11:00N 34°13' E 132°15'0 0.0
2018-Feb-17 10:30N 34°13' E 132°15'0 0.0
2018-Feb-17 10:00N 34°13' E 132°15'0 0.0
2018-Feb-17 09:30N 34°13' E 132°15'0 0.0
2018-Feb-17 09:00N 34°13' E 132°15'0 0.0
2018-Feb-17 08:29N 34°13' E 132°15'0 0.0
2018-Feb-17 08:00N 34°13' E 132°15'0 0.4
2018-Feb-17 07:27N 34°13' E 132°15'1710.9
2018-Feb-17 05:55N 34°03' E 132°31'511.7
2018-Feb-17 05:30N 34°04' E 132°37'9310.6
2018-Feb-16 20:47N 34°21' E 134°27'410.9
2018-Feb-16 20:24N 34°19' E 134°31'511.7
2018-Feb-16 20:00N 34°17' E 134°36'511.0
2018-Feb-16 19:30N 34°13' E 134°41'611.2
2018-Feb-16 18:57N 34°08' E 134°45'511.3
2018-Feb-16 18:30N 34°04' E 134°48'611.6
2018-Feb-16 17:58N 33°59' E 134°53'511.8
2018-Feb-16 17:30N 33°55' E 134°57'611.4
2018-Feb-16 17:00N 33°50' E 135°02'105 8.2
2018-Feb-16 04:12N 34°36' E 136°56'211.8
2018-Feb-16 04:00N 34°38' E 136°54'611.8
2018-Feb-16 03:30N 34°42' E 136°49'612.2
2018-Feb-16 03:00N 34°47' E 136°46'612.0
2018-Feb-16 02:30N 34°53' E 136°43'611.7
2018-Feb-16 02:00N 34°58' E 136°41'0 0.8
2018-Feb-16 01:30N 34°59' E 136°40'0 0.0
2018-Feb-16 01:00N 34°59' E 136°40'0 0.0
2018-Feb-16 00:30N 34°59' E 136°40'0 0.0
2018-Feb-16 00:00N 34°59' E 136°40'0 0.0
2018-Feb-15 23:30N 34°59' E 136°40'1 2.2
2018-Feb-15 23:00N 34°58' E 136°40'0 0.0
2018-Feb-15 22:30N 34°58' E 136°40'0 0.0
2018-Feb-15 22:00N 34°58' E 136°40'0 0.0
2018-Feb-15 21:29N 34°58' E 136°40'0 0.0
2018-Feb-15 21:00N 34°58' E 136°40'0 0.0
2018-Feb-15 20:30N 34°58' E 136°40'0 0.0
2018-Feb-15 20:00N 34°58' E 136°40'0 0.0
2018-Feb-15 19:30N 34°58' E 136°40'0 0.0
2018-Feb-15 19:00N 34°58' E 136°40'0 0.0
2018-Feb-15 18:30N 34°58' E 136°40'0 0.0
2018-Feb-15 18:00N 34°58' E 136°40'0 0.0
2018-Feb-15 17:30N 34°58' E 136°40'0 0.0
2018-Feb-15 17:00N 34°58' E 136°40'0 0.0
2018-Feb-15 16:30N 34°58' E 136°40'0 0.0
2018-Feb-15 16:00N 34°58' E 136°40'0 0.0
2018-Feb-15 15:29N 34°58' E 136°40'0 0.0
2018-Feb-15 15:00N 34°58' E 136°40'0 0.0
2018-Feb-15 14:30N 34°58' E 136°40'0 0.0
2018-Feb-15 14:00N 34°58' E 136°40'0 0.1
2018-Feb-15 13:30N 34°58' E 136°40'0 0.1
2018-Feb-15 13:00N 34°58' E 136°40'0 0.0
2018-Feb-15 12:27N 34°58' E 136°40'0 0.0
2018-Feb-15 12:00N 34°58' E 136°40'0 0.1
2018-Feb-15 11:30N 34°58' E 136°40'0 0.0
2018-Feb-15 11:00N 34°58' E 136°40'0 0.0
2018-Feb-15 10:29N 34°58' E 136°40'0 0.1
2018-Feb-15 10:00N 34°58' E 136°40'4 8.6
2018-Feb-15 09:30N 34°59' E 136°46'510.8
2018-Feb-15 09:00N 35°02' E 136°51'2 3.2
2018-Feb-15 08:30N 35°03' E 136°52'0 0.0
2018-Feb-15 08:00N 35°03' E 136°52'0 0.0
2018-Feb-15 07:30N 35°03' E 136°52'0 0.0
2018-Feb-15 07:00N 35°03' E 136°52'0 0.0
2018-Feb-15 06:30N 35°03' E 136°52'0 0.0
2018-Feb-15 06:00N 35°03' E 136°52'0 0.0
2018-Feb-15 05:30N 35°03' E 136°52'0 0.0
2018-Feb-15 05:00N 35°03' E 136°52'0 0.0
2018-Feb-15 04:30N 35°03' E 136°52'0 0.0
2018-Feb-15 04:00N 35°03' E 136°52'0 0.0
2018-Feb-15 03:30N 35°03' E 136°52'0 0.0
2018-Feb-15 03:00N 35°03' E 136°52'0 0.0
2018-Feb-15 02:30N 35°03' E 136°52'0 0.0
2018-Feb-15 02:00N 35°03' E 136°52'0 0.0
2018-Feb-15 01:30N 35°03' E 136°52'0 0.0
2018-Feb-15 01:00N 35°03' E 136°52'0 0.0
2018-Feb-15 00:30N 35°03' E 136°52'0 0.0
2018-Feb-15 00:00N 35°03' E 136°52'0 0.0
2018-Feb-14 23:30N 35°03' E 136°52'0 0.0
2018-Feb-14 23:00N 35°03' E 136°52'0 0.0
2018-Feb-14 22:30N 35°03' E 136°52'0 0.0
2018-Feb-14 22:00N 35°03' E 136°52'0 0.7
2018-Feb-14 21:30N 35°03' E 136°52'0 0.5
2018-Feb-14 21:00N 35°03' E 136°52'2 3.6
2018-Feb-14 20:30N 35°05' E 136°52'0 0.0
2018-Feb-14 20:00N 35°05' E 136°52'0 0.0
2018-Feb-14 19:30N 35°05' E 136°52'0 0.0
2018-Feb-14 19:00N 35°05' E 136°52'0 0.0
2018-Feb-14 18:30N 35°05' E 136°52'0 0.0
2018-Feb-14 18:00N 35°05' E 136°52'0 0.0
2018-Feb-14 17:30N 35°05' E 136°52'0 0.0
2018-Feb-14 17:00N 35°05' E 136°52'0 0.0
2018-Feb-14 16:30N 35°05' E 136°52'0 0.0
2018-Feb-14 15:59N 35°05' E 136°52'0 0.0
2018-Feb-14 15:30N 35°05' E 136°52'0 0.0
2018-Feb-14 15:00N 35°05' E 136°52'0 0.0
2018-Feb-14 14:30N 35°05' E 136°52'0 0.0
2018-Feb-14 13:59N 35°05' E 136°52'0 0.0
2018-Feb-14 13:30N 35°05' E 136°52'0 0.0
2018-Feb-14 13:00N 35°05' E 136°52'0 0.0
2018-Feb-14 12:29N 35°05' E 136°52'0 0.0
2018-Feb-14 12:00N 35°05' E 136°52'0 0.0
2018-Feb-14 11:30N 35°05' E 136°52'0 0.0
2018-Feb-14 11:00N 35°05' E 136°52'0 0.0
2018-Feb-14 10:30N 35°05' E 136°52'0 0.0
2018-Feb-14 10:00N 35°05' E 136°52'0 0.0
2018-Feb-14 09:30N 35°05' E 136°52'0 0.0
2018-Feb-14 09:00N 35°05' E 136°52'0 0.0
2018-Feb-14 08:30N 35°05' E 136°52'0 0.0
2018-Feb-14 08:00N 35°05' E 136°52'0 0.0
2018-Feb-14 07:30N 35°05' E 136°52'0 0.0
2018-Feb-14 07:00N 35°05' E 136°52'3 6.0
2018-Feb-14 06:30N 35°02' E 136°51'611.4
2018-Feb-14 06:00N 34°58' E 136°45'510.3
2018-Feb-14 05:31N 34°59' E 136°39'0 0.0
2018-Feb-14 05:00N 34°59' E 136°39'0 0.0
2018-Feb-14 04:30N 34°59' E 136°39'0 0.0
2018-Feb-14 04:00N 34°59' E 136°39'0 0.0
2018-Feb-14 03:30N 34°59' E 136°39'0 0.0
2018-Feb-14 03:00N 34°59' E 136°39'0 0.0
2018-Feb-14 02:30N 34°59' E 136°39'0 0.0
2018-Feb-14 02:00N 34°59' E 136°39'0 0.0
2018-Feb-14 01:30N 34°59' E 136°39'0 0.0
2018-Feb-14 01:00N 34°59' E 136°39'0 0.0
2018-Feb-14 00:30N 34°59' E 136°39'1 2.6
2018-Feb-13 23:58N 34°58' E 136°40'0 0.0
2018-Feb-13 23:28N 34°58' E 136°40'0 0.0
2018-Feb-13 23:00N 34°58' E 136°40'0 0.0
2018-Feb-13 22:30N 34°58' E 136°40'0 0.1
2018-Feb-13 22:00N 34°58' E 136°40'0 0.0
2018-Feb-13 21:30N 34°58' E 136°40'0 0.0
2018-Feb-13 20:58N 34°58' E 136°40'0 0.0
2018-Feb-13 20:28N 34°58' E 136°40'0 0.2
2018-Feb-13 20:00N 34°58' E 136°41'510.1
2018-Feb-13 19:30N 34°53' E 136°43'510.9
2018-Feb-13 19:00N 34°48' E 136°46'611.1
2018-Feb-13 18:30N 34°43' E 136°49'1910.2
2018-Feb-13 16:36N 34°33' E 137°10'55 9.3
2018-Feb-13 10:45N 34°34' E 138°16'6 8.2
2018-Feb-13 10:00N 34°36' E 138°23'6 8.0
2018-Feb-13 09:14N 34°37' E 138°30'2 7.5
2018-Feb-13 08:56N 34°37' E 138°33'4 6.9
2018-Feb-13 08:20N 34°37' E 138°38'2 6.3
2018-Feb-13 07:56N 34°36' E 138°41'3 6.6
2018-Feb-13 07:30N 34°36' E 138°44'4 6.1
2018-Feb-13 06:55N 34°35' E 138°49'3 5.8
2018-Feb-13 06:29N 34°35' E 138°52'3 6.3
2018-Feb-13 06:00N 34°36' E 138°55'4 6.9
2018-Feb-13 05:29N 34°38' E 138°59'4 8.1
2018-Feb-13 04:59N 34°41' E 139°02'7 9.5
2018-Feb-13 04:14N 34°47' E 139°06'11 8.9
2018-Feb-13 02:58N 34°55' E 139°16'4 9.2
2018-Feb-13 02:29N 34°57' E 139°21'4 9.1
2018-Feb-13 02:00N 34°59' E 139°25'4 8.7
2018-Feb-13 01:30N 35°01' E 139°30'5 9.1
2018-Feb-13 00:56N 35°04' E 139°35'4 9.4
2018-Feb-13 00:30N 35°06' E 139°40'5 9.1
2018-Feb-12 23:59N 35°09' E 139°44'510.2
2018-Feb-12 23:30N 35°14' E 139°46'611.6
2018-Feb-12 23:00N 35°19' E 139°43'611.1
2018-Feb-12 22:30N 35°24' E 139°43'611.6
2018-Feb-12 22:00N 35°28' E 139°48'1 2.2
2018-Feb-12 21:30N 35°29' E 139°49'0 0.0
2018-Feb-12 21:00N 35°29' E 139°49'0 0.0
2018-Feb-12 20:31N 35°29' E 139°49'0 0.1
2018-Feb-12 20:00N 35°29' E 139°49'0 0.0
2018-Feb-12 19:30N 35°29' E 139°49'0 0.0
2018-Feb-12 19:00N 35°29' E 139°49'0 0.0
2018-Feb-12 18:30N 35°29' E 139°49'0 0.0
2018-Feb-12 18:00N 35°29' E 139°49'0 0.0
2018-Feb-12 17:30N 35°29' E 139°49'0 0.0
2018-Feb-12 17:00N 35°29' E 139°49'0 0.0
2018-Feb-12 16:29N 35°29' E 139°49'0 0.0
2018-Feb-12 16:00N 35°29' E 139°49'0 0.0
2018-Feb-12 15:30N 35°29' E 139°49'0 0.0
2018-Feb-12 15:00N 35°29' E 139°49'0 0.0
2018-Feb-12 14:30N 35°29' E 139°49'0 0.0
2018-Feb-12 14:00N 35°29' E 139°49'0 0.0
2018-Feb-12 13:30N 35°29' E 139°49'0 0.0
2018-Feb-12 13:00N 35°29' E 139°49'0 0.0
2018-Feb-12 12:30N 35°29' E 139°49'0 0.0
2018-Feb-12 12:00N 35°29' E 139°49'0 0.0
2018-Feb-12 11:30N 35°29' E 139°49'0 0.0
2018-Feb-12 11:01N 35°29' E 139°49'0 0.0
2018-Feb-12 10:31N 35°29' E 139°49'0 0.0
2018-Feb-12 10:00N 35°29' E 139°49'0 0.0
2018-Feb-12 09:30N 35°29' E 139°49'0 0.0
2018-Feb-12 09:00N 35°29' E 139°49'0 0.0
2018-Feb-12 08:30N 35°29' E 139°49'0 0.0
2018-Feb-12 08:00N 35°29' E 139°49'0 0.0
2018-Feb-12 07:30N 35°29' E 139°49'0 0.0
2018-Feb-12 07:00N 35°29' E 139°49'0 0.0
2018-Feb-12 06:30N 35°29' E 139°49'0 0.0
2018-Feb-12 06:01N 35°29' E 139°49'0 0.0
2018-Feb-12 05:30N 35°29' E 139°49'0 0.0
2018-Feb-12 05:01N 35°29' E 139°49'  
Track history (hours):
 
Tides and Currents Weather Stations Pressure Air Temp Water Temp Dewpoint Dewpoint Depression Visibility Wind Speed Wind Dir Waves Ship Positions

Meiou Maru

Last reported at 2018-Feb-22 04:57 UTC. Time now 2018-Feb-22 05:22 UTC.
Position N 35°30' E 140°02'.

Length 65 m; draft 4.3 m.

Type: Tanker. MMSI: 431009805.

Date/timePositionNaut miles runAvg speedWind from/ knotsBaromVisibWave heightAir tempDewpointWater temp
2018-Feb-22 04:57N 35°30' E 140°02'0 0.0
2018-Feb-22 04:27N 35°30' E 140°02'0 0.0
2018-Feb-22 03:57N 35°30' E 140°02'0 0.0
2018-Feb-22 03:19N 35°30' E 140°02'0 0.2
2018-Feb-22 02:59N 35°31' E 140°03'1 2.3
2018-Feb-22 02:30N 35°31' E 140°01'0 0.0
2018-Feb-22 02:00N 35°31' E 140°01'0 0.1
2018-Feb-22 01:30N 35°31' E 140°01'0 0.0
2018-Feb-22 01:00N 35°31' E 140°01'0 0.0
2018-Feb-22 00:30N 35°31' E 140°01'0 0.1
2018-Feb-22 00:00N 35°31' E 140°01'0 0.0
2018-Feb-21 23:30N 35°31' E 140°01'0 0.0
2018-Feb-21 23:00N 35°31' E 140°01'0 0.0
2018-Feb-21 22:30N 35°31' E 140°01'0 0.0
2018-Feb-21 22:00N 35°31' E 140°01'0 0.0
2018-Feb-21 21:30N 35°31' E 140°01'0 0.0
2018-Feb-21 21:00N 35°31' E 140°01'0 0.1
2018-Feb-21 20:30N 35°31' E 140°01'0 0.0
2018-Feb-21 20:00N 35°31' E 140°01'0 0.0
2018-Feb-21 19:30N 35°31' E 140°01'0 0.0
2018-Feb-21 19:00N 35°31' E 140°01'0 0.0
2018-Feb-21 18:30N 35°31' E 140°01'0 0.0
2018-Feb-21 18:00N 35°31' E 140°01'0 0.0
2018-Feb-21 17:30N 35°31' E 140°01'0 0.0
2018-Feb-21 17:00N 35°31' E 140°01'0 0.0
2018-Feb-21 16:30N 35°31' E 140°01'0 0.0
2018-Feb-21 16:00N 35°31' E 140°01'0 0.0
2018-Feb-21 15:30N 35°31' E 140°01'0 0.0
2018-Feb-21 15:00N 35°31' E 140°01'0 0.0
2018-Feb-21 14:30N 35°31' E 140°01'0 0.0
2018-Feb-21 14:00N 35°31' E 140°01'0 0.0
2018-Feb-21 13:28N 35°31' E 140°01'0 0.0
2018-Feb-21 13:00N 35°31' E 140°01'0 0.0
2018-Feb-21 12:29N 35°31' E 140°01'0 0.0
2018-Feb-21 11:58N 35°31' E 140°01'0 0.1
2018-Feb-21 11:30N 35°31' E 140°01'5 9.6
2018-Feb-21 11:00N 35°30' E 139°55'611.6
2018-Feb-21 10:30N 35°27' E 139°49'611.5
2018-Feb-21 10:00N 35°22' E 139°45'511.0
2018-Feb-21 09:30N 35°17' E 139°46'611.9
2018-Feb-21 08:59N 35°10' E 139°46'612.4
2018-Feb-21 08:29N 35°05' E 139°43'611.9
2018-Feb-21 07:59N 35°01' E 139°37'1312.0
2018-Feb-21 06:53N 34°53' E 139°24'512.0
2018-Feb-21 06:30N 34°50' E 139°20'612.1
2018-Feb-21 06:00N 34°46' E 139°15'712.1
2018-Feb-21 05:26N 34°41' E 139°09'511.4
2018-Feb-21 05:00N 34°39' E 139°04'611.6
2018-Feb-21 04:30N 34°36' E 138°57'611.6
2018-Feb-21 04:00N 34°35' E 138°51'510.4
2018-Feb-21 03:30N 34°34' E 138°44'2211.6
2018-Feb-21 01:36N 34°32' E 138°18'16510.0
2018-Feb-20 09:03N 33°50' E 135°05'111.6
2018-Feb-20 08:59N 33°51' E 135°04'611.9
2018-Feb-20 08:27N 33°56' E 135°01'512.5
2018-Feb-20 08:00N 34°02' E 135°01'612.6
2018-Feb-20 07:30N 34°08' E 135°02'612.2
2018-Feb-20 07:01N 34°14' E 135°03'713.1
2018-Feb-20 06:30N 34°20' E 135°05'612.3
2018-Feb-20 06:00N 34°26' E 135°10'611.6
2018-Feb-20 05:30N 34°30' E 135°13'611.1
2018-Feb-20 05:00N 34°36' E 135°16'510.8
2018-Feb-20 04:30N 34°41' E 135°15'1 2.6
2018-Feb-20 04:00N 34°42' E 135°15'0 0.0
2018-Feb-20 03:31N 34°42' E 135°15'0 0.0
2018-Feb-20 03:01N 34°42' E 135°15'0 0.0
2018-Feb-20 02:30N 34°42' E 135°15'0 0.1
2018-Feb-20 02:01N 34°42' E 135°15'0 0.0
2018-Feb-20 01:30N 34°42' E 135°15'0 0.0
2018-Feb-20 01:00N 34°42' E 135°15'0 0.0
2018-Feb-20 00:30N 34°42' E 135°15'0 0.0
2018-Feb-19 23:59N 34°42' E 135°15'0 0.0
2018-Feb-19 23:31N 34°42' E 135°15'0 0.0
2018-Feb-19 23:00N 34°42' E 135°15'2 4.1
2018-Feb-19 22:30N 34°40' E 135°15'3 6.0
2018-Feb-19 22:00N 34°37' E 135°16'0 0.0
2018-Feb-19 21:30N 34°37' E 135°16'1 1.9
2018-Feb-19 21:00N 34°37' E 135°15'611.1
2018-Feb-19 20:30N 34°35' E 135°08'613.0
2018-Feb-19 20:00N 34°37' E 135°01'714.2
2018-Feb-19 19:30N 34°35' E 134°53'612.7
2018-Feb-19 19:00N 34°32' E 134°46'611.8
2018-Feb-19 18:30N 34°30' E 134°39'611.5
2018-Feb-19 18:01N 34°27' E 134°33'611.4
2018-Feb-19 17:30N 34°25' E 134°26'611.4
2018-Feb-19 17:00N 34°24' E 134°19'83 9.8
2018-Feb-19 08:32N 34°06' E 132°42'010.0
2018-Feb-19 08:30N 34°06' E 132°41'510.3
2018-Feb-19 08:00N 34°04' E 132°36'810.0
2018-Feb-19 07:15N 34°05' E 132°27'311.3
2018-Feb-19 06:57N 34°07' E 132°23'511.4
2018-Feb-19 06:30N 34°10' E 132°19'511.1
2018-Feb-19 06:00N 34°14' E 132°14'0 0.6
2018-Feb-19 05:30N 34°14' E 132°14'0 0.0
2018-Feb-19 05:00N 34°14' E 132°14'0 0.0
2018-Feb-19 04:30N 34°14' E 132°14'0 0.0
2018-Feb-19 04:00N 34°14' E 132°14'0 0.0
2018-Feb-19 03:30N 34°14' E 132°14'0 0.0
2018-Feb-19 02:59N 34°14' E 132°14'1 1.4
2018-Feb-19 02:30N 34°14' E 132°14'2 4.0
2018-Feb-19 02:00N 34°12' E 132°14'0 0.0
2018-Feb-19 01:30N 34°12' E 132°14'0 0.0
2018-Feb-19 00:59N 34°12' E 132°14'0 0.0
2018-Feb-19 00:28N 34°12' E 132°14'0 0.0
2018-Feb-19 00:00N 34°12' E 132°14'0 0.0
2018-Feb-18 23:30N 34°12' E 132°14'0 0.0
2018-Feb-18 23:00N 34°12' E 132°14'0 0.0
2018-Feb-18 22:29N 34°12' E 132°14'0 0.8
2018-Feb-18 21:59N 34°11' E 132°14'0 0.0
2018-Feb-18 21:30N 34°11' E 132°14'0 0.0
2018-Feb-18 21:00N 34°11' E 132°14'0 0.0
2018-Feb-18 20:30N 34°11' E 132°14'0 0.0
2018-Feb-18 19:57N 34°11' E 132°14'0 0.0
2018-Feb-18 19:30N 34°11' E 132°14'0 0.0
2018-Feb-18 18:59N 34°11' E 132°14'0 0.0
2018-Feb-18 18:30N 34°11' E 132°14'0 0.0
2018-Feb-18 18:00N 34°11' E 132°14'0 0.0
2018-Feb-18 17:30N 34°11' E 132°14'0 0.0
2018-Feb-18 17:00N 34°11' E 132°14'0 0.0
2018-Feb-18 16:30N 34°11' E 132°14'0 0.0
2018-Feb-18 16:00N 34°11' E 132°14'0 0.0
2018-Feb-18 15:30N 34°11' E 132°14'0 0.0
2018-Feb-18 14:58N 34°11' E 132°14'0 0.0
2018-Feb-18 14:30N 34°11' E 132°14'0 0.0
2018-Feb-18 13:58N 34°11' E 132°14'0 0.0
2018-Feb-18 13:30N 34°11' E 132°14'0 0.0
2018-Feb-18 13:00N 34°11' E 132°14'0 0.0
2018-Feb-18 12:30N 34°11' E 132°14'0 0.0
2018-Feb-18 12:00N 34°11' E 132°14'0 0.0
2018-Feb-18 11:30N 34°11' E 132°14'0 0.0
2018-Feb-18 10:59N 34°11' E 132°14'0 0.0
2018-Feb-18 10:30N 34°11' E 132°14'0 0.0
2018-Feb-18 10:00N 34°11' E 132°14'0 0.0
2018-Feb-18 09:30N 34°11' E 132°14'0 0.0
2018-Feb-18 08:59N 34°11' E 132°14'0 0.0
2018-Feb-18 08:29N 34°11' E 132°14'0 0.0
2018-Feb-18 07:59N 34°11' E 132°14'0 0.0
2018-Feb-18 07:25N 34°11' E 132°14'0 0.0
2018-Feb-18 07:00N 34°11' E 132°14'0 0.0
2018-Feb-18 06:23N 34°11' E 132°14'0 0.0
2018-Feb-18 06:00N 34°11' E 132°14'0 0.0
2018-Feb-18 05:30N 34°11' E 132°14'0 0.0
2018-Feb-18 05:00N 34°11' E 132°14'1 2.5
2018-Feb-18 04:30N 34°12' E 132°16'3 5.7
2018-Feb-18 04:00N 34°14' E 132°13'0 0.1
2018-Feb-18 03:30N 34°14' E 132°13'0 0.0
2018-Feb-18 03:00N 34°14' E 132°13'0 0.0
2018-Feb-18 02:30N 34°14' E 132°13'0 0.2
2018-Feb-18 02:00N 34°14' E 132°14'0 0.0
2018-Feb-18 01:30N 34°14' E 132°14'0 0.0
2018-Feb-18 01:00N 34°14' E 132°14'0 0.0
2018-Feb-18 00:30N 34°14' E 132°14'0 0.0
2018-Feb-18 00:00N 34°14' E 132°14'0 0.0
2018-Feb-17 23:30N 34°14' E 132°14'0 0.0
2018-Feb-17 23:00N 34°14' E 132°14'1 2.0
2018-Feb-17 22:30N 34°13' E 132°15'0 0.0
2018-Feb-17 22:00N 34°13' E 132°15'0 0.0
2018-Feb-17 21:30N 34°13' E 132°15'0 0.0
2018-Feb-17 20:59N 34°13' E 132°15'0 0.0
2018-Feb-17 20:30N 34°13' E 132°15'0 0.0
2018-Feb-17 20:00N 34°13' E 132°15'0 0.0
2018-Feb-17 19:30N 34°13' E 132°15'0 0.0
2018-Feb-17 19:00N 34°13' E 132°15'0 0.0
2018-Feb-17 18:30N 34°13' E 132°15'0 0.0
2018-Feb-17 17:59N 34°13' E 132°15'0 0.0
2018-Feb-17 17:30N 34°13' E 132°15'0 0.0
2018-Feb-17 17:00N 34°13' E 132°15'0 0.0
2018-Feb-17 16:30N 34°13' E 132°15'0 0.0
2018-Feb-17 16:00N 34°13' E 132°15'0 0.0
2018-Feb-17 15:30N 34°13' E 132°15'0 0.0
2018-Feb-17 15:00N 34°13' E 132°15'0 0.0
2018-Feb-17 14:30N 34°13' E 132°15'0 0.0
2018-Feb-17 14:00N 34°13' E 132°15'0 0.0
2018-Feb-17 13:30N 34°13' E 132°15'0 0.0
2018-Feb-17 13:00N 34°13' E 132°15'0 0.0
2018-Feb-17 12:30N 34°13' E 132°15'0 0.0
2018-Feb-17 12:00N 34°13' E 132°15'0 0.0
2018-Feb-17 11:30N 34°13' E 132°15'0 0.0
2018-Feb-17 11:00N 34°13' E 132°15'0 0.0
2018-Feb-17 10:30N 34°13' E 132°15'0 0.0
2018-Feb-17 10:00N 34°13' E 132°15'0 0.0
2018-Feb-17 09:30N 34°13' E 132°15'0 0.0
2018-Feb-17 09:00N 34°13' E 132°15'0 0.0
2018-Feb-17 08:29N 34°13' E 132°15'0 0.0
2018-Feb-17 08:00N 34°13' E 132°15'0 0.4
2018-Feb-17 07:27N 34°13' E 132°15'1710.9
2018-Feb-17 05:55N 34°03' E 132°31'511.7
2018-Feb-17 05:30N 34°04' E 132°37'9310.6
2018-Feb-16 20:47N 34°21' E 134°27'410.9
2018-Feb-16 20:24N 34°19' E 134°31'511.7
2018-Feb-16 20:00N 34°17' E 134°36'511.0
2018-Feb-16 19:30N 34°13' E 134°41'611.2
2018-Feb-16 18:57N 34°08' E 134°45'511.3
2018-Feb-16 18:30N 34°04' E 134°48'611.6
2018-Feb-16 17:58N 33°59' E 134°53'511.8
2018-Feb-16 17:30N 33°55' E 134°57'611.4
2018-Feb-16 17:00N 33°50' E 135°02'105 8.2
2018-Feb-16 04:12N 34°36' E 136°56'211.8
2018-Feb-16 04:00N 34°38' E 136°54'611.8
2018-Feb-16 03:30N 34°42' E 136°49'612.2
2018-Feb-16 03:00N 34°47' E 136°46'612.0
2018-Feb-16 02:30N 34°53' E 136°43'611.7
2018-Feb-16 02:00N 34°58' E 136°41'0 0.8
2018-Feb-16 01:30N 34°59' E 136°40'0 0.0
2018-Feb-16 01:00N 34°59' E 136°40'0 0.0
2018-Feb-16 00:30N 34°59' E 136°40'0 0.0
2018-Feb-16 00:00N 34°59' E 136°40'0 0.0
2018-Feb-15 23:30N 34°59' E 136°40'1 2.2
2018-Feb-15 23:00N 34°58' E 136°40'0 0.0
2018-Feb-15 22:30N 34°58' E 136°40'0 0.0
2018-Feb-15 22:00N 34°58' E 136°40'0 0.0
2018-Feb-15 21:29N 34°58' E 136°40'0 0.0
2018-Feb-15 21:00N 34°58' E 136°40'0 0.0
2018-Feb-15 20:30N 34°58' E 136°40'0 0.0
2018-Feb-15 20:00N 34°58' E 136°40'0 0.0
2018-Feb-15 19:30N 34°58' E 136°40'0 0.0
2018-Feb-15 19:00N 34°58' E 136°40'0 0.0
2018-Feb-15 18:30N 34°58' E 136°40'0 0.0
2018-Feb-15 18:00N 34°58' E 136°40'0 0.0
2018-Feb-15 17:30N 34°58' E 136°40'0 0.0
2018-Feb-15 17:00N 34°58' E 136°40'0 0.0
2018-Feb-15 16:30N 34°58' E 136°40'0 0.0
2018-Feb-15 16:00N 34°58' E 136°40'0 0.0
2018-Feb-15 15:29N 34°58' E 136°40'0 0.0
2018-Feb-15 15:00N 34°58' E 136°40'0 0.0
2018-Feb-15 14:30N 34°58' E 136°40'0 0.0
2018-Feb-15 14:00N 34°58' E 136°40'0 0.1
2018-Feb-15 13:30N 34°58' E 136°40'0 0.1
2018-Feb-15 13:00N 34°58' E 136°40'0 0.0
2018-Feb-15 12:27N 34°58' E 136°40'0 0.0
2018-Feb-15 12:00N 34°58' E 136°40'0 0.1
2018-Feb-15 11:30N 34°58' E 136°40'0 0.0
2018-Feb-15 11:00N 34°58' E 136°40'0 0.0
2018-Feb-15 10:29N 34°58' E 136°40'0 0.1
2018-Feb-15 10:00N 34°58' E 136°40'4 8.6
2018-Feb-15 09:30N 34°59' E 136°46'510.8
2018-Feb-15 09:00N 35°02' E 136°51'2 3.2
2018-Feb-15 08:30N 35°03' E 136°52'0 0.0
2018-Feb-15 08:00N 35°03' E 136°52'0 0.0
2018-Feb-15 07:30N 35°03' E 136°52'0 0.0
2018-Feb-15 07:00N 35°03' E 136°52'0 0.0
2018-Feb-15 06:30N 35°03' E 136°52'0 0.0
2018-Feb-15 06:00N 35°03' E 136°52'0 0.0
2018-Feb-15 05:30N 35°03' E 136°52'0 0.0
2018-Feb-15 05:00N 35°03' E 136°52'0 0.0
2018-Feb-15 04:30N 35°03' E 136°52'0 0.0
2018-Feb-15 04:00N 35°03' E 136°52'0 0.0
2018-Feb-15 03:30N 35°03' E 136°52'0 0.0
2018-Feb-15 03:00N 35°03' E 136°52'0 0.0
2018-Feb-15 02:30N 35°03' E 136°52'0 0.0
2018-Feb-15 02:00N 35°03' E 136°52'0 0.0
2018-Feb-15 01:30N 35°03' E 136°52'0 0.0
2018-Feb-15 01:00N 35°03' E 136°52'0 0.0
2018-Feb-15 00:30N 35°03' E 136°52'0 0.0
2018-Feb-15 00:00N 35°03' E 136°52'0 0.0
2018-Feb-14 23:30N 35°03' E 136°52'0 0.0
2018-Feb-14 23:00N 35°03' E 136°52'0 0.0
2018-Feb-14 22:30N 35°03' E 136°52'0 0.0
2018-Feb-14 22:00N 35°03' E 136°52'0 0.7
2018-Feb-14 21:30N 35°03' E 136°52'0 0.5
2018-Feb-14 21:00N 35°03' E 136°52'2 3.6
2018-Feb-14 20:30N 35°05' E 136°52'0 0.0
2018-Feb-14 20:00N 35°05' E 136°52'0 0.0
2018-Feb-14 19:30N 35°05' E 136°52'0 0.0
2018-Feb-14 19:00N 35°05' E 136°52'0 0.0
2018-Feb-14 18:30N 35°05' E 136°52'0 0.0
2018-Feb-14 18:00N 35°05' E 136°52'0 0.0
2018-Feb-14 17:30N 35°05' E 136°52'0 0.0
2018-Feb-14 17:00N 35°05' E 136°52'0 0.0
2018-Feb-14 16:30N 35°05' E 136°52'0 0.0
2018-Feb-14 15:59N 35°05' E 136°52'0 0.0
2018-Feb-14 15:30N 35°05' E 136°52'0 0.0
2018-Feb-14 15:00N 35°05' E 136°52'0 0.0
2018-Feb-14 14:30N 35°05' E 136°52'0 0.0
2018-Feb-14 13:59N 35°05' E 136°52'0 0.0
2018-Feb-14 13:30N 35°05' E 136°52'0 0.0
2018-Feb-14 13:00N 35°05' E 136°52'0 0.0
2018-Feb-14 12:29N 35°05' E 136°52'0 0.0
2018-Feb-14 12:00N 35°05' E 136°52'0 0.0
2018-Feb-14 11:30N 35°05' E 136°52'0 0.0
2018-Feb-14 11:00N 35°05' E 136°52'0 0.0
2018-Feb-14 10:30N 35°05' E 136°52'0 0.0
2018-Feb-14 10:00N 35°05' E 136°52'0 0.0
2018-Feb-14 09:30N 35°05' E 136°52'0 0.0
2018-Feb-14 09:00N 35°05' E 136°52'0 0.0
2018-Feb-14 08:30N 35°05' E 136°52'0 0.0
2018-Feb-14 08:00N 35°05' E 136°52'0 0.0
2018-Feb-14 07:30N 35°05' E 136°52'0 0.0
2018-Feb-14 07:00N 35°05' E 136°52'3 6.0
2018-Feb-14 06:30N 35°02' E 136°51'611.4
2018-Feb-14 06:00N 34°58' E 136°45'510.3
2018-Feb-14 05:31N 34°59' E 136°39'0 0.0
2018-Feb-14 05:00N 34°59' E 136°39'0 0.0
2018-Feb-14 04:30N 34°59' E 136°39'0 0.0
2018-Feb-14 04:00N 34°59' E 136°39'0 0.0
2018-Feb-14 03:30N 34°59' E 136°39'0 0.0
2018-Feb-14 03:00N 34°59' E 136°39'0 0.0
2018-Feb-14 02:30N 34°59' E 136°39'0 0.0
2018-Feb-14 02:00N 34°59' E 136°39'0 0.0
2018-Feb-14 01:30N 34°59' E 136°39'0 0.0
2018-Feb-14 01:00N 34°59' E 136°39'0 0.0
2018-Feb-14 00:30N 34°59' E 136°39'1 2.6
2018-Feb-13 23:58N 34°58' E 136°40'0 0.0
2018-Feb-13 23:28N 34°58' E 136°40'0 0.0
2018-Feb-13 23:00N 34°58' E 136°40'0 0.0
2018-Feb-13 22:30N 34°58' E 136°40'0 0.1
2018-Feb-13 22:00N 34°58' E 136°40'0 0.0
2018-Feb-13 21:30N 34°58' E 136°40'0 0.0
2018-Feb-13 20:58N 34°58' E 136°40'0 0.0
2018-Feb-13 20:28N 34°58' E 136°40'0 0.2
2018-Feb-13 20:00N 34°58' E 136°41'510.1
2018-Feb-13 19:30N 34°53' E 136°43'510.9
2018-Feb-13 19:00N 34°48' E 136°46'611.1
2018-Feb-13 18:30N 34°43' E 136°49'1910.2
2018-Feb-13 16:36N 34°33' E 137°10'55 9.3
2018-Feb-13 10:45N 34°34' E 138°16'6 8.2
2018-Feb-13 10:00N 34°36' E 138°23'6 8.0
2018-Feb-13 09:14N 34°37' E 138°30'2 7.5
2018-Feb-13 08:56N 34°37' E 138°33'4 6.9
2018-Feb-13 08:20N 34°37' E 138°38'2 6.3
2018-Feb-13 07:56N 34°36' E 138°41'3 6.6
2018-Feb-13 07:30N 34°36' E 138°44'4 6.1
2018-Feb-13 06:55N 34°35' E 138°49'3 5.8
2018-Feb-13 06:29N 34°35' E 138°52'3 6.3
2018-Feb-13 06:00N 34°36' E 138°55'4 6.9
2018-Feb-13 05:29N 34°38' E 138°59'4 8.1
2018-Feb-13 04:59N 34°41' E 139°02'7 9.5
2018-Feb-13 04:14N 34°47' E 139°06'11 8.9
2018-Feb-13 02:58N 34°55' E 139°16'4 9.2
2018-Feb-13 02:29N 34°57' E 139°21'4 9.1
2018-Feb-13 02:00N 34°59' E 139°25'4 8.7
2018-Feb-13 01:30N 35°01' E 139°30'5 9.1
2018-Feb-13 00:56N 35°04' E 139°35'4 9.4
2018-Feb-13 00:30N 35°06' E 139°40'5 9.1
2018-Feb-12 23:59N 35°09' E 139°44'510.2
2018-Feb-12 23:30N 35°14' E 139°46'611.6
2018-Feb-12 23:00N 35°19' E 139°43'611.1
2018-Feb-12 22:30N 35°24' E 139°43'611.6
2018-Feb-12 22:00N 35°28' E 139°48'1 2.2
2018-Feb-12 21:30N 35°29' E 139°49'0 0.0
2018-Feb-12 21:00N 35°29' E 139°49'0 0.0
2018-Feb-12 20:31N 35°29' E 139°49'0 0.1
2018-Feb-12 20:00N 35°29' E 139°49'0 0.0
2018-Feb-12 19:30N 35°29' E 139°49'0 0.0
2018-Feb-12 19:00N 35°29' E 139°49'0 0.0
2018-Feb-12 18:30N 35°29' E 139°49'0 0.0
2018-Feb-12 18:00N 35°29' E 139°49'0 0.0
2018-Feb-12 17:30N 35°29' E 139°49'0 0.0
2018-Feb-12 17:00N 35°29' E 139°49'0 0.0
2018-Feb-12 16:29N 35°29' E 139°49'0 0.0
2018-Feb-12 16:00N 35°29' E 139°49'0 0.0
2018-Feb-12 15:30N 35°29' E 139°49'0 0.0
2018-Feb-12 15:00N 35°29' E 139°49'0 0.0
2018-Feb-12 14:30N 35°29' E 139°49'0 0.0
2018-Feb-12 14:00N 35°29' E 139°49'0 0.0
2018-Feb-12 13:30N 35°29' E 139°49'0 0.0
2018-Feb-12 13:00N 35°29' E 139°49'0 0.0
2018-Feb-12 12:30N 35°29' E 139°49'0 0.0
2018-Feb-12 12:00N 35°29' E 139°49'0 0.0
2018-Feb-12 11:30N 35°29' E 139°49'0 0.0
2018-Feb-12 11:01N 35°29' E 139°49'0 0.0
2018-Feb-12 10:31N 35°29' E 139°49'0 0.0
2018-Feb-12 10:00N 35°29' E 139°49'0 0.0
2018-Feb-12 09:30N 35°29' E 139°49'0 0.0
2018-Feb-12 09:00N 35°29' E 139°49'0 0.0
2018-Feb-12 08:30N 35°29' E 139°49'0 0.0
2018-Feb-12 08:00N 35°29' E 139°49'0 0.0
2018-Feb-12 07:30N 35°29' E 139°49'0 0.0
2018-Feb-12 07:00N 35°29' E 139°49'0 0.0
2018-Feb-12 06:30N 35°29' E 139°49'0 0.0
2018-Feb-12 06:01N 35°29' E 139°49'0 0.0
2018-Feb-12 05:30N 35°29' E 139°49'0 0.0
2018-Feb-12 05:01N 35°29' E 139°49'  

Dump ship's entire track history